Time;durP1;ratioP1;P1;durP2;ratioP2;P2;SDS_P1;SDS_P2;PMS_P1;PMS_P2;Temp;Humidity;BMP_temperature;BMP_pressure;BME280_temperature;BME280_humidity;BME280_pressure;Samples;Min_cycle;Max_cycle;Signal;HPM_P1;HPM_P2
2023/11/15 00:00:49;;;;;;;1.42;0.95;;;9.50;99.90;;;;;;4975880;28;20255;-74
2023/11/15 00:03:17;;;;;;;1.55;1.02;;;9.50;99.90;;;;;;4975387;28;20203;-74
2023/11/15 00:05:44;;;;;;;0.90;0.70;;;9.50;99.90;;;;;;4975540;28;20681;-74
2023/11/15 00:08:12;;;;;;;1.23;1.10;;;9.50;99.90;;;;;;4975358;28;20208;-74
2023/11/15 00:10:40;;;;;;;1.42;1.17;;;9.50;99.90;;;;;;4975894;28;20239;-74
2023/11/15 00:13:07;;;;;;;1.25;1.13;;;9.50;99.90;;;;;;4975129;28;20274;-74
2023/11/15 04:32:39;;;;;;;1.45;0.90;;;8.10;99.90;;;;;;5119478;23;20488;-95
2023/11/15 04:35:07;;;;;;;1.27;1.00;;;8.10;99.90;;;;;;4999556;28;20180;-94
2023/11/15 04:37:34;;;;;;;1.67;1.00;;;8.10;99.90;;;;;;5003327;23;20338;-72
2023/11/15 04:40:01;;;;;;;0.90;0.80;;;8.00;99.90;;;;;;4974505;28;20231;-72
2023/11/15 04:42:28;;;;;;;1.73;1.00;;;8.00;99.90;;;;;;4972525;28;20602;-72
2023/11/15 04:44:54;;;;;;;1.10;1.00;;;8.00;99.90;;;;;;4974344;28;20203;-72
2023/11/15 04:47:21;;;;;;;1.30;0.90;;;8.00;99.90;;;;;;4974395;28;20212;-72
2023/11/15 04:49:49;;;;;;;4.13;0.90;;;8.10;99.90;;;;;;4974522;28;20199;-71
2023/11/15 04:52:16;;;;;;;0.88;0.80;;;8.10;99.90;;;;;;4974166;28;20235;-71
2023/11/15 04:54:43;;;;;;;1.05;0.80;;;8.10;99.90;;;;;;4973770;28;20218;-72
2023/11/15 04:57:10;;;;;;;2.50;1.10;;;8.10;99.90;;;;;;4974556;28;20208;-71
2023/11/15 04:59:36;;;;;;;0.85;0.80;;;8.20;99.90;;;;;;4973971;28;20254;-71
2023/11/15 05:02:03;;;;;;;2.00;1.10;;;8.20;99.90;;;;;;4973975;28;20670;-72
2023/11/15 05:04:30;;;;;;;1.40;1.00;;;8.20;99.90;;;;;;4973620;28;20211;-72
2023/11/15 05:06:58;;;;;;;2.33;1.17;;;8.20;99.90;;;;;;4973742;28;20597;-71
2023/11/15 05:09:27;;;;;;;2.58;1.10;;;8.20;99.90;;;;;;4973326;28;20603;-71
2023/11/15 05:11:53;;;;;;;2.10;1.08;;;8.20;99.90;;;;;;4973718;28;20237;-71
2023/11/15 05:14:22;;;;;;;1.35;0.98;;;8.20;99.90;;;;;;4973904;28;20208;-72
2023/11/15 05:16:48;;;;;;;1.42;1.00;;;8.20;99.90;;;;;;4972791;28;20254;-71
2023/11/15 05:19:17;;;;;;;1.50;0.98;;;8.20;99.90;;;;;;4974570;28;20207;-71
2023/11/15 05:21:44;;;;;;;8.57;1.20;;;8.20;99.90;;;;;;4975292;28;20239;-71
2023/11/15 05:24:12;;;;;;;0.90;0.80;;;8.20;99.90;;;;;;4976144;28;20210;-70
2023/11/15 05:26:38;;;;;;;4.03;1.38;;;8.20;99.90;;;;;;4976430;28;20212;-71
2023/11/15 05:29:05;;;;;;;3.35;1.60;;;8.20;99.90;;;;;;4976299;28;20206;-72
2023/11/15 05:31:32;;;;;;;0.90;0.80;;;8.20;99.90;;;;;;4976261;28;20254;-71
2023/11/15 05:33:59;;;;;;;2.60;1.08;;;8.20;99.90;;;;;;4973926;28;20214;-72
2023/11/15 05:36:26;;;;;;;2.65;1.50;;;8.20;99.90;;;;;;4975875;28;20202;-71
2023/11/15 05:38:53;;;;;;;1.30;0.95;;;8.20;99.90;;;;;;4975136;28;20584;-71
2023/11/15 05:41:21;;;;;;;1.77;1.38;;;8.20;99.90;;;;;;4974107;28;20227;-73
2023/11/15 05:43:47;;;;;;;0.90;0.80;;;8.20;99.90;;;;;;4975749;28;20203;-72
2023/11/15 05:46:14;;;;;;;2.40;0.98;;;8.20;99.90;;;;;;4975083;28;20208;-72
2023/11/15 05:48:42;;;;;;;6.43;1.30;;;8.20;99.90;;;;;;4975432;28;20230;-72
2023/11/15 05:51:09;;;;;;;7.10;1.52;;;8.20;99.90;;;;;;4975176;28;20231;-72
2023/11/15 05:53:36;;;;;;;0.95;0.80;;;8.20;99.90;;;;;;4975233;28;20605;-71
2023/11/15 05:56:03;;;;;;;2.40;1.05;;;8.30;99.90;;;;;;4974768;28;20244;-72
2023/11/15 05:58:32;;;;;;;1.83;1.15;;;8.30;99.90;;;;;;4975568;28;20660;-71
2023/11/15 06:00:58;;;;;;;1.30;0.95;;;8.30;99.90;;;;;;4975533;28;20224;-73
2023/11/15 06:03:25;;;;;;;3.88;1.20;;;8.30;99.90;;;;;;4975594;28;20206;-72
2023/11/15 06:05:52;;;;;;;1.50;1.20;;;8.30;99.90;;;;;;4975882;28;20204;-72
2023/11/15 06:08:19;;;;;;;1.75;1.02;;;8.30;99.90;;;;;;4975557;28;20209;-71
2023/11/15 06:10:47;;;;;;;1.38;1.13;;;8.30;99.90;;;;;;4975599;28;20234;-72
2023/11/15 06:13:15;;;;;;;2.65;1.00;;;8.30;99.90;;;;;;4977471;28;20215;-72
2023/11/15 06:15:43;;;;;;;3.90;1.30;;;8.30;99.90;;;;;;4975090;28;20668;-71
2023/11/15 06:18:11;;;;;;;1.00;0.90;;;8.30;99.90;;;;;;4977356;28;20702;-72
2023/11/15 06:20:38;;;;;;;1.35;0.88;;;8.30;99.90;;;;;;4975622;28;20232;-72
2023/11/15 06:23:04;;;;;;;1.23;1.10;;;8.30;99.90;;;;;;4975601;28;20271;-71
2023/11/15 06:25:32;;;;;;;2.30;1.20;;;8.30;99.90;;;;;;4975182;28;20577;-71
2023/11/15 06:27:59;;;;;;;1.25;1.00;;;8.30;99.90;;;;;;4975634;28;20265;-72
2023/11/15 06:30:26;;;;;;;2.55;1.02;;;8.30;99.90;;;;;;4975841;28;20207;-72
2023/11/15 06:32:54;;;;;;;1.50;1.20;;;8.30;99.90;;;;;;4974862;28;20211;-71
2023/11/15 06:35:21;;;;;;;1.40;1.20;;;8.30;99.90;;;;;;4975413;28;20215;-72
2023/11/15 06:37:48;;;;;;;1.17;0.93;;;8.30;99.90;;;;;;4974633;28;20219;-72
2023/11/15 06:40:16;;;;;;;2.60;1.00;;;8.30;99.90;;;;;;4974485;28;20282;-72
2023/11/15 06:42:43;;;;;;;1.75;1.10;;;8.30;99.90;;;;;;4974338;28;20242;-71
2023/11/15 06:45:12;;;;;;;1.38;1.27;;;8.30;99.90;;;;;;4973135;28;20259;-71
2023/11/15 06:47:39;;;;;;;1.08;0.80;;;8.30;99.90;;;;;;4973709;28;20660;-72
2023/11/15 06:50:08;;;;;;;2.55;1.23;;;8.30;99.90;;;;;;4973965;28;20275;-71
2023/11/15 06:52:37;;;;;;;3.10;1.30;;;8.30;99.90;;;;;;4973422;28;20227;-72
2023/11/15 06:55:06;;;;;;;1.20;1.10;;;8.30;99.90;;;;;;4972608;28;20214;-71
2023/11/15 06:57:33;;;;;;;4.70;1.35;;;8.20;99.90;;;;;;4973666;28;20332;-72
2023/11/15 06:59:59;;;;;;;1.95;1.80;;;8.20;99.90;;;;;;4973380;28;20244;-72
2023/11/15 07:02:26;;;;;;;2.28;1.10;;;8.10;99.90;;;;;;4972896;28;20261;-72
2023/11/15 07:04:54;;;;;;;1.10;1.00;;;8.10;99.90;;;;;;4972154;28;20231;-71
2023/11/15 07:07:22;;;;;;;4.72;1.60;;;8.10;99.90;;;;;;4972949;28;20696;-72
2023/11/15 07:09:49;;;;;;;1.20;1.00;;;8.00;99.90;;;;;;4972600;28;20212;-72
2023/11/15 07:12:16;;;;;;;2.75;1.30;;;8.00;99.90;;;;;;4973008;28;20239;-72
2023/11/15 07:14:44;;;;;;;3.42;1.50;;;8.00;99.90;;;;;;4972119;28;20263;-72
2023/11/15 07:17:12;;;;;;;2.55;1.10;;;8.00;99.90;;;;;;4973307;28;20204;-72
2023/11/15 07:19:39;;;;;;;1.50;1.02;;;8.00;99.90;;;;;;4974776;28;20728;-71
2023/11/15 07:22:06;;;;;;;2.40;0.98;;;8.00;99.90;;;;;;4975275;28;20225;-72
2023/11/15 07:24:39;;;;;;;1.63;1.15;;;8.10;99.90;;;;;;4974454;28;20279;-74
2023/11/15 07:27:06;;;;;;;1.23;1.00;;;8.20;99.90;;;;;;4973480;28;20221;-73
2023/11/15 07:29:33;;;;;;;1.65;1.45;;;8.30;99.90;;;;;;4974852;28;20211;-72
2023/11/15 07:32:01;;;;;;;4.80;1.20;;;8.50;99.90;;;;;;4974118;28;20274;-72
2023/11/15 07:34:29;;;;;;;1.35;1.00;;;8.60;99.90;;;;;;4969975;28;20210;-72
2023/11/15 07:36:56;;;;;;;1.02;0.90;;;8.70;99.90;;;;;;4974104;28;20297;-72
2023/11/15 07:39:24;;;;;;;1.65;1.20;;;8.70;99.90;;;;;;4973445;28;20258;-72
2023/11/15 07:41:54;;;;;;;1.20;0.88;;;8.70;99.90;;;;;;4973128;28;20230;-72
2023/11/15 07:44:21;;;;;;;2.55;1.10;;;8.70;99.90;;;;;;4973913;28;20699;-72
2023/11/15 07:46:49;;;;;;;1.10;0.82;;;8.70;99.90;;;;;;4973406;28;20212;-72
2023/11/15 07:49:18;;;;;;;1.45;1.35;;;8.90;99.90;;;;;;4973477;28;20227;-72
2023/11/15 07:51:45;;;;;;;1.45;1.20;;;9.10;99.90;;;;;;4975355;28;20229;-71
2023/11/15 07:54:11;;;;;;;2.45;1.00;;;9.00;99.90;;;;;;4975647;28;20215;-71
2023/11/15 07:56:38;;;;;;;1.38;1.27;;;9.00;99.90;;;;;;4975039;28;20242;-71
2023/11/15 07:59:06;;;;;;;1.80;1.30;;;9.00;99.90;;;;;;4972266;28;20208;-72
2023/11/15 08:01:33;;;;;;;3.90;1.00;;;9.00;99.90;;;;;;4974969;28;20231;-71
2023/11/15 08:04:01;;;;;;;1.30;0.95;;;9.00;99.90;;;;;;4974728;28;20208;-74
2023/11/15 08:06:27;;;;;;;4.60;1.23;;;8.90;99.90;;;;;;4969950;28;20242;-71
2023/11/15 08:08:55;;;;;;;5.10;1.30;;;8.80;99.90;;;;;;4974975;28;20234;-71
2023/11/15 08:11:22;;;;;;;1.33;1.10;;;8.80;99.90;;;;;;4978474;28;20267;-71
2023/11/15 08:13:50;;;;;;;1.60;1.23;;;9.00;99.90;;;;;;4977246;28;20594;-70
2023/11/15 08:16:18;;;;;;;2.30;1.20;;;9.70;99.90;;;;;;4976652;28;20200;-70
2023/11/15 08:18:44;;;;;;;3.45;1.13;;;11.10;99.90;;;;;;4978228;28;20211;-72
2023/11/15 08:21:12;;;;;;;2.25;1.00;;;12.10;99.90;;;;;;4980124;28;20232;-72
2023/11/15 08:23:39;;;;;;;1.15;0.90;;;12.30;99.90;;;;;;4979804;28;20740;-72
2023/11/15 08:26:07;;;;;;;2.95;1.33;;;12.10;99.90;;;;;;4978734;28;20208;-72
2023/11/15 08:28:34;;;;;;;2.08;1.20;;;11.90;99.90;;;;;;4979702;28;20301;-73
2023/11/15 08:31:01;;;;;;;1.20;0.88;;;11.80;99.90;;;;;;4978807;28;20248;-72
2023/11/15 08:33:29;;;;;;;6.88;1.42;;;11.60;99.90;;;;;;4979213;28;20696;-72
2023/11/15 08:35:56;;;;;;;1.20;1.02;;;11.40;99.90;;;;;;4978218;28;20232;-73
2023/11/15 08:38:24;;;;;;;1.23;0.93;;;11.20;99.90;;;;;;4978416;28;20289;-73
2023/11/15 08:40:52;;;;;;;1.58;1.00;;;11.00;99.90;;;;;;4978701;28;20225;-72
2023/11/15 08:43:19;;;;;;;5.38;1.15;;;11.00;99.90;;;;;;4978979;28;20200;-70
2023/11/15 08:45:47;;;;;;;1.08;0.98;;;12.00;99.90;;;;;;4977611;28;20213;-71
2023/11/15 08:48:17;;;;;;;1.20;0.95;;;12.90;99.90;;;;;;4978806;28;20639;-72
2023/11/15 08:50:46;;;;;;;1.30;0.80;;;13.20;99.90;;;;;;4978454;28;20248;-71
2023/11/15 08:53:14;;;;;;;1.45;1.05;;;13.00;99.90;;;;;;4976578;28;20225;-71
2023/11/15 08:55:44;;;;;;;1.77;1.65;;;12.60;99.90;;;;;;4978149;28;20210;-72
2023/11/15 08:58:12;;;;;;;2.47;1.17;;;12.10;99.90;;;;;;4976341;28;20210;-72
2023/11/15 09:00:39;;;;;;;1.75;1.17;;;11.80;99.90;;;;;;4978496;28;20240;-71
2023/11/15 09:03:08;;;;;;;1.33;1.08;;;11.70;99.90;;;;;;4977496;28;20213;-71
2023/11/15 09:05:36;;;;;;;1.13;0.90;;;11.40;99.90;;;;;;4977396;28;20217;-72
2023/11/15 09:08:05;;;;;;;2.38;1.20;;;11.10;99.90;;;;;;4977736;28;20212;-71
2023/11/15 09:10:32;;;;;;;2.70;1.35;;;11.00;99.90;;;;;;4975039;28;20303;-71
2023/11/15 09:12:59;;;;;;;1.15;0.85;;;10.70;99.90;;;;;;4974904;28;20641;-70
2023/11/15 09:15:26;;;;;;;1.45;0.80;;;10.50;99.90;;;;;;4974256;28;20204;-70
2023/11/15 09:17:52;;;;;;;3.33;1.15;;;10.50;99.90;;;;;;4974692;28;20203;-70
2023/11/15 09:20:21;;;;;;;1.40;0.90;;;10.70;99.90;;;;;;4973548;28;20580;-71
2023/11/15 09:22:49;;;;;;;1.48;0.88;;;12.00;99.90;;;;;;4974243;28;20217;-70
2023/11/15 09:25:21;;;;;;;4.30;1.47;;;14.50;99.90;;;;;;4980380;28;20219;-71
2023/11/15 09:27:49;;;;;;;4.07;2.03;;;17.60;99.90;;;;;;4974096;28;20460;-71
2023/11/15 09:30:17;;;;;;;4.27;1.97;;;19.10;99.90;;;;;;4974399;28;20472;-73
2023/11/15 09:32:44;;;;;;;2.90;1.13;;;19.40;99.90;;;;;;4974474;28;20474;-73
2023/11/15 09:35:13;;;;;;;0.90;0.80;;;19.00;99.90;;;;;;4973533;28;20463;-73
2023/11/15 09:37:41;;;;;;;1.47;0.80;;;19.70;99.90;;;;;;4974270;28;20466;-72
2023/11/15 09:40:11;;;;;;;1.30;1.00;;;20.90;99.90;;;;;;4973757;28;20886;-73
2023/11/15 09:42:43;;;;;;;2.60;1.10;;;22.00;99.90;;;;;;4974228;28;20522;-72
2023/11/15 09:45:16;;;;;;;1.40;1.00;;;22.70;99.90;;;;;;4973422;28;20475;-73
2023/11/15 09:47:44;;;;;;;1.20;0.90;;;22.20;99.90;;;;;;4974214;28;20467;-72
2023/11/15 09:50:14;;;;;;;1.00;0.90;;;20.40;99.90;;;;;;4973773;28;20550;-72
2023/11/15 09:52:42;;;;;;;1.47;0.90;;;18.60;99.90;;;;;;4974195;28;20465;-73
2023/11/15 09:55:10;;;;;;;1.33;1.07;;;17.10;99.90;;;;;;4973326;28;20462;-73
2023/11/15 09:57:37;;;;;;;1.43;1.33;;;15.90;99.90;;;;;;4974523;28;21167;-72
2023/11/15 10:00:09;;;;;;;3.23;1.17;;;15.10;99.90;;;;;;4973825;28;20471;-71
2023/11/15 10:02:37;;;;;;;1.73;1.00;;;15.40;99.90;;;;;;4974112;28;20507;-72
2023/11/15 10:05:18;;;;;;;2.53;1.10;;;15.70;99.90;;;;;;4973204;28;20470;-71
2023/11/15 10:07:47;;;;;;;1.10;0.83;;;16.70;99.90;;;;;;4974073;28;20464;-72
2023/11/15 10:10:18;;;;;;;3.57;1.70;;;17.40;99.90;;;;;;4968793;28;20486;-71
2023/11/15 10:12:45;;;;;;;2.70;1.20;;;16.90;99.90;;;;;;4973512;28;20460;-71
2023/11/15 10:15:14;;;;;;;1.03;0.93;;;15.90;99.90;;;;;;4972737;28;20471;-71
2023/11/15 10:17:43;;;;;;;1.40;0.90;;;15.00;99.90;;;;;;4974213;28;20841;-70
2023/11/15 10:20:22;;;;;;;1.07;0.97;;;14.80;99.90;;;;;;4971417;28;20468;-69
2023/11/15 10:22:50;;;;;;;1.53;1.20;;;15.90;99.90;;;;;;4968205;28;20580;-71
2023/11/15 10:25:18;;;;;;;1.10;0.80;;;16.80;99.90;;;;;;4972187;28;20473;-70
2023/11/15 10:27:46;;;;;;;1.10;0.83;;;16.50;99.90;;;;;;4973509;28;20471;-72
2023/11/15 10:30:22;;;;;;;2.07;1.10;;;16.80;99.90;;;;;;4973447;28;20469;-72
2023/11/15 10:32:51;;;;;;;1.00;0.87;;;18.40;99.90;;;;;;4972317;28;20550;-72
2023/11/15 10:35:28;;;;;;;1.63;0.90;;;20.10;99.90;;;;;;4972654;28;20471;-71
2023/11/15 10:37:55;;;;;;;1.10;0.87;;;20.80;99.90;;;;;;4970610;28;20538;-72
2023/11/15 10:40:25;;;;;;;2.23;1.00;;;22.10;99.90;;;;;;4974092;28;20474;-72
2023/11/15 10:42:54;;;;;;;0.90;0.80;;;22.00;99.90;;;;;;4978190;28;20467;-70
2023/11/15 10:45:24;;;;;;;1.40;0.83;;;21.80;99.90;;;;;;4974015;28;20471;-71
2023/11/15 10:47:57;;;;;;;1.17;0.80;;;20.60;99.90;;;;;;4972618;28;20967;-71
2023/11/15 10:50:30;;;;;;;2.33;0.90;;;19.70;99.90;;;;;;4972458;28;21012;-70
2023/11/15 10:52:59;;;;;;;0.97;0.80;;;18.80;99.90;;;;;;4972708;28;20554;-70
2023/11/15 10:55:28;;;;;;;1.47;1.13;;;18.10;99.90;;;;;;4971529;28;20497;-70
2023/11/15 10:57:59;;;;;;;1.30;0.90;;;18.40;99.90;;;;;;4972794;28;20474;-70
2023/11/15 11:00:30;;;;;;;2.00;0.80;;;18.80;99.90;;;;;;4972340;28;20526;-70
2023/11/15 11:02:57;;;;;;;1.47;0.80;;;19.20;99.90;;;;;;4972359;28;20463;-70
2023/11/15 11:05:34;;;;;;;1.57;0.90;;;19.70;99.90;;;;;;4971885;28;20896;-71
2023/11/15 11:08:08;;;;;;;2.43;0.90;;;20.20;99.90;;;;;;4972607;28;20463;-70
2023/11/15 11:10:40;;;;;;;1.00;0.80;;;20.80;99.90;;;;;;4970138;28;20460;-71
2023/11/15 11:13:18;;;;;;;1.20;0.80;;;21.30;99.90;;;;;;4972114;28;20489;-71
2023/11/15 11:15:47;;;;;;;0.90;0.70;;;20.90;99.90;;;;;;4971773;28;20851;-70
2023/11/15 11:18:17;;;;;;;1.10;0.90;;;21.40;99.90;;;;;;4971541;28;20464;-71
2023/11/15 11:20:56;;;;;;;1.20;0.97;;;22.50;99.90;;;;;;4972283;28;20571;-70
2023/11/15 11:23:23;;;;;;;1.50;0.90;;;22.70;99.90;;;;;;4971822;28;21360;-71
2023/11/15 11:25:52;;;;;;;1.00;0.83;;;23.10;99.90;;;;;;4971740;28;20949;-70
2023/11/15 11:28:20;;;;;;;1.30;1.00;;;22.70;99.90;;;;;;4972119;28;21229;-71
2023/11/15 11:31:15;;;;;;;1.50;0.80;;;21.90;99.90;;;;;;4971917;28;20475;-70
2023/11/15 11:34:09;;;;;;;1.00;0.80;;;20.40;99.90;;;;;;4971941;28;20956;-70
2023/11/15 11:36:49;;;;;;;1.67;1.10;;;19.30;99.90;;;;;;4966024;28;20948;-71
2023/11/15 11:39:20;;;;;;;1.93;1.00;;;19.40;99.90;;;;;;4971403;28;20495;-70
2023/11/15 11:41:49;;;;;;;1.53;1.00;;;19.20;99.90;;;;;;4972069;28;20940;-71
2023/11/15 11:44:17;;;;;;;1.13;0.80;;;19.60;99.90;;;;;;4970503;28;20952;-70
2023/11/15 11:47:01;;;;;;;1.40;1.00;;;20.40;99.90;;;;;;4972132;28;20834;-71
2023/11/15 11:49:28;;;;;;;1.83;1.20;;;20.90;99.90;;;;;;4964544;28;20471;-71
2023/11/15 11:51:56;;;;;;;1.30;0.90;;;21.00;99.90;;;;;;4970797;28;20501;-71
2023/11/15 11:54:24;;;;;;;2.30;1.00;;;21.00;99.90;;;;;;4971075;28;21094;-71
2023/11/15 11:56:53;;;;;;;1.90;0.90;;;20.00;99.90;;;;;;4972264;28;20854;-70
2023/11/15 11:59:20;;;;;;;3.73;0.90;;;19.20;99.90;;;;;;4971356;28;20955;-70
2023/11/15 12:01:51;;;;;;;3.07;1.10;;;18.50;99.90;;;;;;4971868;28;20479;-70
2023/11/15 12:04:17;;;;;;;0.93;0.83;;;18.00;99.90;;;;;;4971193;28;20643;-70
2023/11/15 12:06:45;;;;;;;1.50;0.87;;;18.00;99.90;;;;;;4972205;28;20465;-71
2023/11/15 12:09:21;;;;;;;1.83;1.03;;;17.90;99.90;;;;;;4971729;28;20485;-71
2023/11/15 12:11:48;;;;;;;1.90;0.93;;;17.60;99.90;;;;;;4972476;28;20526;-71
2023/11/15 12:14:15;;;;;;;1.00;0.83;;;17.40;99.90;;;;;;4971311;28;20474;-71
2023/11/15 12:16:42;;;;;;;1.17;0.90;;;17.20;99.90;;;;;;4971826;28;20965;-71
2023/11/15 12:19:12;;;;;;;2.17;0.97;;;16.80;99.90;;;;;;4969670;28;20463;-70
2023/11/15 12:21:43;;;;;;;1.50;1.00;;;16.40;99.90;;;;;;4969267;28;20569;-70
2023/11/15 12:24:11;;;;;;;1.27;0.90;;;16.40;99.90;;;;;;4966610;28;20495;-69
2023/11/15 12:26:45;;;;;;;1.60;1.00;;;16.10;99.90;;;;;;4971122;28;20494;-70
2023/11/15 12:29:26;;;;;;;1.90;0.97;;;15.80;99.90;;;;;;4971083;28;20492;-70
2023/11/15 12:31:56;;;;;;;1.03;0.70;;;15.60;99.90;;;;;;4971635;28;20492;-72
2023/11/15 12:34:24;;;;;;;1.77;1.03;;;15.20;99.90;;;;;;4971200;28;20479;-72
2023/11/15 12:36:51;;;;;;;1.90;1.00;;;14.90;99.90;;;;;;4971685;28;20971;-72
2023/11/15 12:39:21;;;;;;;1.00;0.90;;;14.50;99.90;;;;;;4971554;28;21008;-72
2023/11/15 12:41:49;;;;;;;1.00;0.90;;;14.10;99.90;;;;;;4971746;28;20498;-70
2023/11/15 12:44:16;;;;;;;1.20;1.00;;;13.90;99.90;;;;;;4971153;28;20483;-72
2023/11/15 12:46:44;;;;;;;1.13;0.70;;;13.60;99.90;;;;;;4971868;28;20506;-72
2023/11/15 12:49:14;;;;;;;1.20;1.00;;;13.60;99.90;;;;;;4971798;28;20491;-72
2023/11/15 12:51:52;;;;;;;0.90;0.70;;;13.40;99.90;;;;;;4972149;28;20855;-72
2023/11/15 12:54:19;;;;;;;1.83;1.00;;;13.30;99.90;;;;;;4970668;28;20242;-72
2023/11/15 12:57:02;;;;;;;0.90;0.80;;;13.00;99.90;;;;;;4975289;28;20473;-72
2023/11/15 12:59:33;;;;;;;1.40;0.80;;;12.70;99.90;;;;;;4974349;28;20273;-71
2023/11/15 13:02:00;;;;;;;3.17;1.37;;;12.50;99.90;;;;;;4974664;28;20497;-72
2023/11/15 13:04:26;;;;;;;0.90;0.80;;;12.50;99.90;;;;;;4974060;28;20466;-70
2023/11/15 13:06:55;;;;;;;1.35;0.90;;;12.40;99.90;;;;;;4974982;28;20684;-71
2023/11/15 13:09:22;;;;;;;2.40;0.95;;;12.50;99.90;;;;;;4974292;28;20206;-71
2023/11/15 13:11:49;;;;;;;1.98;0.80;;;12.90;99.90;;;;;;4974809;28;20223;-71
2023/11/15 13:14:20;;;;;;;2.20;0.83;;;13.30;99.90;;;;;;4974042;28;20222;-72
2023/11/15 13:16:46;;;;;;;2.20;0.93;;;13.40;99.90;;;;;;4974017;28;20470;-70
2023/11/15 13:19:14;;;;;;;2.15;1.00;;;13.20;99.90;;;;;;4974333;28;20489;-71
2023/11/15 13:21:43;;;;;;;1.97;0.90;;;13.30;99.90;;;;;;4974393;28;20769;-70
2023/11/15 13:24:12;;;;;;;1.77;0.93;;;13.00;99.90;;;;;;4973596;28;20471;-70
2023/11/15 13:26:40;;;;;;;0.90;0.70;;;12.90;99.90;;;;;;4974454;28;20265;-69
2023/11/15 13:29:08;;;;;;;0.90;0.80;;;12.70;99.90;;;;;;4974042;28;20281;-69
2023/11/15 13:31:35;;;;;;;1.00;0.85;;;12.60;99.90;;;;;;4973963;28;20257;-70
2023/11/15 13:34:03;;;;;;;0.90;0.80;;;12.60;99.90;;;;;;4974354;28;20228;-71
2023/11/15 13:36:31;;;;;;;3.20;0.90;;;12.60;99.90;;;;;;4972927;28;20242;-73
2023/11/15 13:38:58;;;;;;;0.90;0.70;;;12.70;99.90;;;;;;4974027;28;20211;-72
2023/11/15 13:41:26;;;;;;;0.90;0.70;;;12.90;99.90;;;;;;4973570;28;20237;-71
2023/11/15 13:43:52;;;;;;;2.80;1.00;;;13.10;99.90;;;;;;4973195;28;20229;-70
2023/11/15 13:46:22;;;;;;;0.90;0.75;;;13.00;99.90;;;;;;4972531;28;20211;-72
2023/11/15 13:49:26;;;;;;;2.00;1.00;;;12.90;99.90;;;;;;4974033;28;20585;-71
2023/11/15 13:51:52;;;;;;;1.10;1.00;;;12.80;99.90;;;;;;4973263;28;20231;-73
2023/11/15 13:54:20;;;;;;;2.08;0.90;;;12.80;99.90;;;;;;4972629;28;20242;-73
2023/11/15 13:56:48;;;;;;;1.92;1.00;;;12.70;99.90;;;;;;4973812;28;20215;-73
2023/11/15 13:59:16;;;;;;;1.15;1.00;;;12.60;99.90;;;;;;4972992;28;20222;-72
2023/11/15 14:01:42;;;;;;;3.25;1.25;;;12.50;99.90;;;;;;4973497;28;20317;-73
2023/11/15 14:04:10;;;;;;;1.00;0.90;;;12.40;99.90;;;;;;4972769;28;20211;-73
2023/11/15 14:06:37;;;;;;;3.28;1.08;;;12.20;99.90;;;;;;4971857;28;20673;-73
2023/11/15 14:09:06;;;;;;;1.95;0.93;;;12.20;99.90;;;;;;4972782;28;20286;-73
2023/11/15 14:11:35;;;;;;;4.43;1.35;;;12.10;99.90;;;;;;4973635;28;20307;-72
2023/11/15 14:14:04;;;;;;;2.13;1.30;;;12.10;99.90;;;;;;4973035;28;20210;-72
2023/11/15 14:16:30;;;;;;;1.27;0.93;;;12.00;99.90;;;;;;4971727;28;20201;-72
2023/11/15 14:18:57;;;;;;;0.80;0.70;;;12.10;99.90;;;;;;4972679;28;20222;-72
2023/11/15 14:21:24;;;;;;;1.55;1.17;;;12.30;99.90;;;;;;4973450;28;20582;-73
2023/11/15 14:23:51;;;;;;;2.08;0.95;;;12.60;99.90;;;;;;4972792;28;20293;-72
2023/11/15 14:26:18;;;;;;;2.10;1.00;;;12.70;99.90;;;;;;4972758;28;20215;-73
2023/11/15 14:28:45;;;;;;;1.10;0.85;;;12.60;99.90;;;;;;4973044;28;20261;-73
2023/11/15 14:31:13;;;;;;;1.37;0.90;;;12.40;99.90;;;;;;4972335;28;20238;-73
2023/11/15 14:33:40;;;;;;;4.47;1.38;;;12.40;99.90;;;;;;4972829;28;20515;-72
2023/11/15 14:36:09;;;;;;;2.30;0.95;;;12.60;99.90;;;;;;4972700;28;20270;-71
2023/11/15 14:38:37;;;;;;;2.65;1.20;;;12.50;99.90;;;;;;4972535;28;20215;-71
2023/11/15 14:41:04;;;;;;;1.10;0.80;;;12.30;99.90;;;;;;4972911;28;20788;-71
2023/11/15 14:43:31;;;;;;;1.20;0.82;;;12.00;99.90;;;;;;4973065;28;20222;-72
2023/11/15 14:45:58;;;;;;;1.58;1.30;;;11.80;99.90;;;;;;4972795;28;20229;-72
2023/11/15 14:48:26;;;;;;;1.15;0.90;;;11.60;99.90;;;;;;4972890;28;20221;-72
2023/11/15 14:50:53;;;;;;;1.58;1.02;;;11.40;99.90;;;;;;4972743;28;20231;-73
2023/11/15 14:53:29;;;;;;;1.20;0.85;;;11.20;99.90;;;;;;4972073;28;20649;-72
2023/11/15 14:55:56;;;;;;;1.25;0.80;;;11.10;99.90;;;;;;4972019;28;20296;-72
2023/11/15 14:58:25;;;;;;;1.85;0.95;;;10.90;99.90;;;;;;4972129;28;20214;-73
2023/11/15 15:00:52;;;;;;;1.70;1.02;;;10.90;99.90;;;;;;4972286;28;20247;-72
2023/11/15 15:03:21;;;;;;;2.33;1.67;;;10.80;99.90;;;;;;4972526;28;20248;-72
2023/11/15 15:05:50;;;;;;;2.05;1.00;;;10.70;99.90;;;;;;4972238;28;20259;-73
2023/11/15 15:08:17;;;;;;;1.63;0.90;;;10.60;99.90;;;;;;4971549;28;20204;-73
2023/11/15 15:10:44;;;;;;;1.00;0.88;;;10.60;99.90;;;;;;4972146;28;20600;-72
2023/11/15 15:13:12;;;;;;;1.00;0.90;;;10.60;99.90;;;;;;4971908;28;20204;-72
2023/11/15 15:15:39;;;;;;;1.20;1.00;;;10.50;99.90;;;;;;4971668;28;20241;-72
2023/11/15 15:18:06;;;;;;;3.38;1.00;;;10.50;99.90;;;;;;4971733;28;20206;-72
2023/11/15 15:20:33;;;;;;;1.73;1.20;;;10.50;99.90;;;;;;4971865;28;20219;-73
2023/11/15 15:23:02;;;;;;;1.67;0.95;;;10.40;99.90;;;;;;4971644;28;20307;-72
2023/11/15 15:25:30;;;;;;;1.83;1.00;;;10.40;99.90;;;;;;4969277;28;20689;-71
2023/11/15 15:27:57;;;;;;;1.75;1.20;;;10.30;99.90;;;;;;4971656;28;20304;-72
2023/11/15 15:30:32;;;;;;;1.63;1.08;;;10.30;99.90;;;;;;4971561;28;20204;-73
2023/11/15 15:33:00;;;;;;;1.05;0.95;;;10.20;99.90;;;;;;4971508;28;20214;-71
2023/11/15 15:35:27;;;;;;;4.35;1.15;;;10.20;99.90;;;;;;4971136;28;20556;-71
2023/11/15 15:37:54;;;;;;;1.65;0.95;;;10.10;99.90;;;;;;4971301;28;20266;-72
2023/11/15 15:40:26;;;;;;;3.67;1.30;;;10.00;99.90;;;;;;4971998;28;20254;-71
2023/11/15 15:42:55;;;;;;;2.00;1.30;;;10.00;99.90;;;;;;4971546;28;20216;-71
2023/11/15 15:45:23;;;;;;;1.75;0.90;;;9.80;99.90;;;;;;4970613;28;20287;-71
2023/11/15 15:47:50;;;;;;;2.08;1.30;;;9.80;99.90;;;;;;4971907;28;20200;-72
2023/11/15 15:50:17;;;;;;;1.67;1.10;;;9.80;99.90;;;;;;4971723;28;20216;-72
2023/11/15 15:52:44;;;;;;;1.33;0.90;;;9.80;99.90;;;;;;4971491;28;20211;-71
2023/11/15 15:55:12;;;;;;;1.38;1.05;;;9.70;99.90;;;;;;4970964;28;20591;-71
2023/11/15 15:57:40;;;;;;;2.10;1.33;;;9.70;99.90;;;;;;4971779;28;20211;-71
2023/11/15 16:00:07;;;;;;;1.00;0.90;;;9.60;99.90;;;;;;4971470;28;20208;-71
2023/11/15 16:02:35;;;;;;;1.20;1.10;;;9.50;99.90;;;;;;4971388;28;20224;-71
2023/11/15 16:05:03;;;;;;;1.80;1.08;;;9.50;99.90;;;;;;4971003;28;20245;-71
2023/11/15 16:07:30;;;;;;;1.10;0.80;;;9.40;99.90;;;;;;4968461;28;20235;-71
2023/11/15 16:10:00;;;;;;;2.70;1.55;;;9.30;99.90;;;;;;4971772;28;20204;-70
2023/11/15 16:12:27;;;;;;;1.35;0.90;;;9.30;99.90;;;;;;4971435;28;20708;-70
2023/11/15 16:14:56;;;;;;;2.10;1.00;;;9.20;99.90;;;;;;4970527;28;20204;-71
2023/11/15 16:17:23;;;;;;;1.88;1.20;;;9.20;99.90;;;;;;4971992;28;20274;-70
2023/11/15 16:19:50;;;;;;;1.25;0.90;;;9.10;99.90;;;;;;4971207;28;20204;-70
2023/11/15 16:22:18;;;;;;;1.48;0.90;;;9.10;99.90;;;;;;4971404;28;20262;-70
2023/11/15 16:24:46;;;;;;;0.90;0.80;;;9.10;99.90;;;;;;4970904;28;20993;-70
2023/11/15 16:27:12;;;;;;;3.97;1.05;;;9.10;99.90;;;;;;4971406;28;20199;-71
2023/11/15 16:29:39;;;;;;;1.10;0.93;;;9.00;99.90;;;;;;4971944;28;20266;-71
2023/11/15 16:32:08;;;;;;;1.33;1.02;;;9.00;99.90;;;;;;4973310;28;20306;-71
2023/11/15 16:34:37;;;;;;;1.80;1.17;;;8.90;99.90;;;;;;4974731;28;20638;-71
2023/11/15 16:37:05;;;;;;;2.20;1.20;;;8.90;99.90;;;;;;4975604;28;20212;-71
2023/11/15 16:39:32;;;;;;;1.45;1.10;;;8.90;99.90;;;;;;4976278;28;20285;-71
2023/11/15 16:42:01;;;;;;;1.70;1.25;;;8.80;99.90;;;;;;4975698;28;20231;-72
2023/11/15 16:44:33;;;;;;;3.75;1.58;;;8.80;99.90;;;;;;4971844;28;20250;-71
2023/11/15 16:47:00;;;;;;;4.43;1.60;;;8.70;99.90;;;;;;4967509;28;20231;-72
2023/11/15 16:49:28;;;;;;;4.00;1.35;;;8.70;99.90;;;;;;4974198;28;20623;-70
2023/11/15 16:51:55;;;;;;;2.38;1.13;;;8.70;99.90;;;;;;4974472;28;20242;-70
2023/11/15 16:54:22;;;;;;;1.25;1.15;;;8.70;99.90;;;;;;4972060;28;20240;-70
2023/11/15 16:56:49;;;;;;;2.13;1.15;;;8.60;99.90;;;;;;4973849;28;20745;-70
2023/11/15 16:59:16;;;;;;;3.97;1.92;;;8.60;99.90;;;;;;4973793;28;20208;-72
2023/11/15 17:01:42;;;;;;;5.40;2.55;;;8.50;99.90;;;;;;4974262;28;20256;-72
2023/11/15 17:04:09;;;;;;;1.52;1.25;;;8.50;99.90;;;;;;4973697;28;20327;-72
2023/11/15 17:06:37;;;;;;;1.20;1.08;;;8.50;99.90;;;;;;4971895;28;20235;-71
2023/11/15 17:09:04;;;;;;;2.55;1.35;;;8.50;99.90;;;;;;4973791;28;20215;-71
2023/11/15 17:11:31;;;;;;;1.95;1.15;;;8.40;99.90;;;;;;4975064;28;20635;-73
2023/11/15 17:13:59;;;;;;;3.70;1.13;;;8.40;99.90;;;;;;4975423;28;20703;-74